sensor_id;sensor_type;location;lat;lon;timestamp;P1;durP1;ratioP1;P2;durP2;ratioP2
43986;SDS011;29650;47.378;8.300;2023-07-08T00:02:10;8.40;;;3.00;;
43986;SDS011;29650;47.378;8.300;2023-07-08T00:04:38;10.55;;;3.55;;
43986;SDS011;29650;47.378;8.300;2023-07-08T00:09:36;9.43;;;3.13;;
43986;SDS011;29650;47.378;8.300;2023-07-08T00:12:07;7.90;;;2.80;;
43986;SDS011;29650;47.378;8.300;2023-07-08T00:14:36;13.10;;;2.85;;
43986;SDS011;29650;47.378;8.300;2023-07-08T00:17:04;8.32;;;2.50;;
43986;SDS011;29650;47.378;8.300;2023-07-08T00:19:37;9.52;;;2.58;;
43986;SDS011;29650;47.378;8.300;2023-07-08T00:22:07;9.75;;;2.30;;
43986;SDS011;29650;47.378;8.300;2023-07-08T00:24:38;5.53;;;2.20;;
43986;SDS011;29650;47.378;8.300;2023-07-08T00:27:08;9.30;;;2.15;;
43986;SDS011;29650;47.378;8.300;2023-07-08T00:29:38;5.82;;;2.13;;
43986;SDS011;29650;47.378;8.300;2023-07-08T00:32:09;8.85;;;2.60;;
43986;SDS011;29650;47.378;8.300;2023-07-08T00:34:38;10.10;;;2.95;;
43986;SDS011;29650;47.378;8.300;2023-07-08T00:37:07;8.50;;;3.40;;
43986;SDS011;29650;47.378;8.300;2023-07-08T00:39:36;12.82;;;2.92;;
43986;SDS011;29650;47.378;8.300;2023-07-08T00:42:06;9.23;;;2.63;;
43986;SDS011;29650;47.378;8.300;2023-07-08T00:44:41;6.80;;;2.70;;
43986;SDS011;29650;47.378;8.300;2023-07-08T00:47:09;11.20;;;2.95;;
43986;SDS011;29650;47.378;8.300;2023-07-08T00:49:39;7.28;;;2.50;;
43986;SDS011;29650;47.378;8.300;2023-07-08T00:52:23;6.40;;;3.08;;
43986;SDS011;29650;47.378;8.300;2023-07-08T00:54:52;10.25;;;2.90;;
43986;SDS011;29650;47.378;8.300;2023-07-08T00:57:21;5.72;;;2.20;;
43986;SDS011;29650;47.378;8.300;2023-07-08T00:59:54;6.57;;;2.47;;
43986;SDS011;29650;47.378;8.300;2023-07-08T01:02:26;7.28;;;2.30;;
43986;SDS011;29650;47.378;8.300;2023-07-08T01:04:56;11.13;;;3.13;;
43986;SDS011;29650;47.378;8.300;2023-07-08T01:07:28;5.63;;;2.60;;
43986;SDS011;29650;47.378;8.300;2023-07-08T01:09:58;5.78;;;2.58;;
43986;SDS011;29650;47.378;8.300;2023-07-08T01:12:32;6.72;;;2.45;;
43986;SDS011;29650;47.378;8.300;2023-07-08T01:15:03;7.15;;;2.80;;
43986;SDS011;29650;47.378;8.300;2023-07-08T01:17:32;6.13;;;2.90;;
43986;SDS011;29650;47.378;8.300;2023-07-08T01:20:00;4.78;;;2.70;;
43986;SDS011;29650;47.378;8.300;2023-07-08T01:22:32;6.55;;;2.80;;
43986;SDS011;29650;47.378;8.300;2023-07-08T01:25:01;6.70;;;2.55;;
43986;SDS011;29650;47.378;8.300;2023-07-08T01:27:29;7.20;;;2.38;;
43986;SDS011;29650;47.378;8.300;2023-07-08T01:30:00;9.50;;;2.75;;
43986;SDS011;29650;47.378;8.300;2023-07-08T01:32:29;5.87;;;2.23;;
43986;SDS011;29650;47.378;8.300;2023-07-08T01:34:59;8.57;;;2.67;;
43986;SDS011;29650;47.378;8.300;2023-07-08T01:37:34;6.60;;;2.53;;
43986;SDS011;29650;47.378;8.300;2023-07-08T01:40:16;5.18;;;2.65;;
43986;SDS011;29650;47.378;8.300;2023-07-08T01:42:55;5.60;;;1.98;;
43986;SDS011;29650;47.378;8.300;2023-07-08T01:45:23;11.00;;;3.63;;
43986;SDS011;29650;47.378;8.300;2023-07-08T01:50:21;6.95;;;2.40;;
43986;SDS011;29650;47.378;8.300;2023-07-08T01:52:50;6.32;;;2.72;;
43986;SDS011;29650;47.378;8.300;2023-07-08T01:55:22;7.78;;;2.55;;
43986;SDS011;29650;47.378;8.300;2023-07-08T01:57:51;3.45;;;2.33;;
43986;SDS011;29650;47.378;8.300;2023-07-08T02:00:19;6.65;;;2.83;;
43986;SDS011;29650;47.378;8.300;2023-07-08T02:02:47;5.20;;;2.33;;
43986;SDS011;29650;47.378;8.300;2023-07-08T02:05:14;5.63;;;2.40;;
43986;SDS011;29650;47.378;8.300;2023-07-08T02:07:41;6.32;;;2.83;;
43986;SDS011;29650;47.378;8.300;2023-07-08T02:10:10;9.15;;;2.75;;
43986;SDS011;29650;47.378;8.300;2023-07-08T02:12:37;6.95;;;3.08;;
43986;SDS011;29650;47.378;8.300;2023-07-08T02:15:05;7.43;;;2.95;;
43986;SDS011;29650;47.378;8.300;2023-07-08T02:17:33;8.48;;;2.72;;
43986;SDS011;29650;47.378;8.300;2023-07-08T02:20:00;11.88;;;3.50;;
43986;SDS011;29650;47.378;8.300;2023-07-08T02:22:27;9.77;;;3.42;;
43986;SDS011;29650;47.378;8.300;2023-07-08T02:24:54;12.63;;;3.75;;
43986;SDS011;29650;47.378;8.300;2023-07-08T02:27:23;9.00;;;3.08;;
43986;SDS011;29650;47.378;8.300;2023-07-08T02:29:50;6.25;;;3.08;;
43986;SDS011;29650;47.378;8.300;2023-07-08T02:32:17;10.35;;;3.50;;
43986;SDS011;29650;47.378;8.300;2023-07-08T02:34:44;12.18;;;4.22;;
43986;SDS011;29650;47.378;8.300;2023-07-08T02:37:11;11.68;;;4.40;;
43986;SDS011;29650;47.378;8.300;2023-07-08T02:39:38;10.23;;;4.47;;
43986;SDS011;29650;47.378;8.300;2023-07-08T02:42:05;7.13;;;4.30;;
43986;SDS011;29650;47.378;8.300;2023-07-08T02:44:33;10.07;;;3.80;;
43986;SDS011;29650;47.378;8.300;2023-07-08T02:47:00;12.68;;;3.65;;
43986;SDS011;29650;47.378;8.300;2023-07-08T02:49:27;13.88;;;4.07;;
43986;SDS011;29650;47.378;8.300;2023-07-08T02:51:54;10.95;;;4.03;;
43986;SDS011;29650;47.378;8.300;2023-07-08T02:54:21;13.00;;;3.97;;
43986;SDS011;29650;47.378;8.300;2023-07-08T02:56:48;16.27;;;5.07;;
43986;SDS011;29650;47.378;8.300;2023-07-08T02:59:15;13.43;;;4.30;;
43986;SDS011;29650;47.378;8.300;2023-07-08T03:01:43;9.95;;;4.03;;
43986;SDS011;29650;47.378;8.300;2023-07-08T03:06:39;11.65;;;4.32;;
43986;SDS011;29650;47.378;8.300;2023-07-08T03:09:06;13.32;;;3.85;;
43986;SDS011;29650;47.378;8.300;2023-07-08T03:11:34;11.13;;;4.30;;
43986;SDS011;29650;47.378;8.300;2023-07-08T03:14:01;11.15;;;4.50;;
43986;SDS011;29650;47.378;8.300;2023-07-08T03:16:28;7.88;;;4.20;;
43986;SDS011;29650;47.378;8.300;2023-07-08T03:18:57;15.65;;;4.43;;
43986;SDS011;29650;47.378;8.300;2023-07-08T03:21:24;9.52;;;4.43;;
43986;SDS011;29650;47.378;8.300;2023-07-08T03:23:51;9.45;;;3.45;;
43986;SDS011;29650;47.378;8.300;2023-07-08T03:26:19;11.43;;;3.97;;
43986;SDS011;29650;47.378;8.300;2023-07-08T03:28:47;9.07;;;3.70;;
43986;SDS011;29650;47.378;8.300;2023-07-08T03:31:14;9.07;;;3.65;;
43986;SDS011;29650;47.378;8.300;2023-07-08T03:33:42;7.60;;;3.85;;
43986;SDS011;29650;47.378;8.300;2023-07-08T03:36:12;8.15;;;3.90;;
43986;SDS011;29650;47.378;8.300;2023-07-08T03:38:48;9.88;;;4.85;;
43986;SDS011;29650;47.378;8.300;2023-07-08T03:41:15;10.13;;;3.85;;
43986;SDS011;29650;47.378;8.300;2023-07-08T03:43:42;12.43;;;5.00;;
43986;SDS011;29650;47.378;8.300;2023-07-08T03:46:10;8.88;;;4.22;;
43986;SDS011;29650;47.378;8.300;2023-07-08T03:48:38;9.18;;;4.20;;
43986;SDS011;29650;47.378;8.300;2023-07-08T03:51:06;10.38;;;4.57;;
43986;SDS011;29650;47.378;8.300;2023-07-08T03:53:37;8.80;;;4.50;;
43986;SDS011;29650;47.378;8.300;2023-07-08T03:56:04;10.38;;;3.90;;
43986;SDS011;29650;47.378;8.300;2023-07-08T03:58:31;8.75;;;3.88;;
43986;SDS011;29650;47.378;8.300;2023-07-08T04:00:58;10.27;;;4.13;;
43986;SDS011;29650;47.378;8.300;2023-07-08T04:03:25;9.13;;;4.53;;
43986;SDS011;29650;47.378;8.300;2023-07-08T04:05:52;9.93;;;4.63;;
43986;SDS011;29650;47.378;8.300;2023-07-08T04:08:19;9.85;;;3.67;;
43986;SDS011;29650;47.378;8.300;2023-07-08T04:10:47;8.10;;;4.20;;
43986;SDS011;29650;47.378;8.300;2023-07-08T04:13:14;10.35;;;4.10;;
43986;SDS011;29650;47.378;8.300;2023-07-08T04:15:41;7.07;;;3.85;;
43986;SDS011;29650;47.378;8.300;2023-07-08T04:18:08;12.43;;;4.05;;
43986;SDS011;29650;47.378;8.300;2023-07-08T04:20:35;10.52;;;3.45;;
43986;SDS011;29650;47.378;8.300;2023-07-08T04:23:02;6.72;;;2.95;;
43986;SDS011;29650;47.378;8.300;2023-07-08T04:25:29;8.43;;;3.20;;
43986;SDS011;29650;47.378;8.300;2023-07-08T04:27:58;6.13;;;3.00;;
43986;SDS011;29650;47.378;8.300;2023-07-08T04:30:25;8.48;;;2.42;;
43986;SDS011;29650;47.378;8.300;2023-07-08T04:32:52;3.95;;;1.80;;
43986;SDS011;29650;47.378;8.300;2023-07-08T04:35:21;7.88;;;2.45;;
43986;SDS011;29650;47.378;8.300;2023-07-08T04:37:48;3.33;;;1.60;;
43986;SDS011;29650;47.378;8.300;2023-07-08T04:40:16;3.92;;;2.10;;
43986;SDS011;29650;47.378;8.300;2023-07-08T04:42:46;4.75;;;2.00;;
43986;SDS011;29650;47.378;8.300;2023-07-08T04:45:16;4.22;;;1.60;;
43986;SDS011;29650;47.378;8.300;2023-07-08T04:47:43;2.80;;;1.45;;
43986;SDS011;29650;47.378;8.300;2023-07-08T04:50:12;4.32;;;1.52;;
43986;SDS011;29650;47.378;8.300;2023-07-08T04:52:39;5.63;;;1.40;;
43986;SDS011;29650;47.378;8.300;2023-07-08T04:55:06;3.78;;;1.20;;
43986;SDS011;29650;47.378;8.300;2023-07-08T04:57:34;3.30;;;1.48;;
43986;SDS011;29650;47.378;8.300;2023-07-08T05:00:02;2.33;;;1.25;;
43986;SDS011;29650;47.378;8.300;2023-07-08T05:02:36;5.90;;;2.20;;
43986;SDS011;29650;47.378;8.300;2023-07-08T05:05:03;5.82;;;1.70;;
43986;SDS011;29650;47.378;8.300;2023-07-08T05:07:31;3.22;;;2.03;;
43986;SDS011;29650;47.378;8.300;2023-07-08T05:09:58;3.65;;;1.60;;
43986;SDS011;29650;47.378;8.300;2023-07-08T05:12:25;5.45;;;1.95;;
43986;SDS011;29650;47.378;8.300;2023-07-08T05:14:52;3.63;;;1.52;;
43986;SDS011;29650;47.378;8.300;2023-07-08T05:17:19;3.53;;;1.65;;
43986;SDS011;29650;47.378;8.300;2023-07-08T05:19:48;3.97;;;1.55;;
43986;SDS011;29650;47.378;8.300;2023-07-08T05:22:16;5.10;;;2.05;;
43986;SDS011;29650;47.378;8.300;2023-07-08T05:24:50;4.60;;;1.80;;
43986;SDS011;29650;47.378;8.300;2023-07-08T05:27:17;3.45;;;1.40;;
43986;SDS011;29650;47.378;8.300;2023-07-08T05:29:45;7.18;;;1.73;;
43986;SDS011;29650;47.378;8.300;2023-07-08T05:32:13;3.13;;;1.50;;
43986;SDS011;29650;47.378;8.300;2023-07-08T05:34:40;2.80;;;1.60;;
43986;SDS011;29650;47.378;8.300;2023-07-08T05:37:08;2.95;;;1.77;;
43986;SDS011;29650;47.378;8.300;2023-07-08T05:39:36;5.43;;;2.05;;
43986;SDS011;29650;47.378;8.300;2023-07-08T05:42:03;3.53;;;1.58;;
43986;SDS011;29650;47.378;8.300;2023-07-08T05:44:30;4.03;;;1.40;;
43986;SDS011;29650;47.378;8.300;2023-07-08T05:46:57;3.88;;;1.80;;
43986;SDS011;29650;47.378;8.300;2023-07-08T05:49:24;5.90;;;1.70;;
43986;SDS011;29650;47.378;8.300;2023-07-08T05:51:51;6.03;;;1.95;;
43986;SDS011;29650;47.378;8.300;2023-07-08T05:54:19;3.65;;;1.92;;
43986;SDS011;29650;47.378;8.300;2023-07-08T05:56:46;4.38;;;2.53;;
43986;SDS011;29650;47.378;8.300;2023-07-08T05:59:13;4.88;;;1.40;;
43986;SDS011;29650;47.378;8.300;2023-07-08T06:01:40;4.78;;;1.55;;
43986;SDS011;29650;47.378;8.300;2023-07-08T06:04:07;4.82;;;2.20;;
43986;SDS011;29650;47.378;8.300;2023-07-08T06:06:34;4.63;;;2.13;;
43986;SDS011;29650;47.378;8.300;2023-07-08T06:09:01;5.57;;;1.58;;
43986;SDS011;29650;47.378;8.300;2023-07-08T06:11:30;5.88;;;2.85;;
43986;SDS011;29650;47.378;8.300;2023-07-08T06:13:58;6.60;;;2.63;;
43986;SDS011;29650;47.378;8.300;2023-07-08T06:16:25;6.60;;;2.60;;
43986;SDS011;29650;47.378;8.300;2023-07-08T06:18:52;2.65;;;1.73;;
43986;SDS011;29650;47.378;8.300;2023-07-08T06:21:19;5.68;;;1.70;;
43986;SDS011;29650;47.378;8.300;2023-07-08T06:23:46;4.30;;;2.10;;
43986;SDS011;29650;47.378;8.300;2023-07-08T06:26:12;5.45;;;1.75;;
43986;SDS011;29650;47.378;8.300;2023-07-08T06:28:41;8.52;;;1.95;;
43986;SDS011;29650;47.378;8.300;2023-07-08T06:31:08;3.15;;;1.83;;
43986;SDS011;29650;47.378;8.300;2023-07-08T06:33:35;3.97;;;1.85;;
43986;SDS011;29650;47.378;8.300;2023-07-08T06:36:02;6.28;;;2.05;;
43986;SDS011;29650;47.378;8.300;2023-07-08T06:38:29;4.88;;;1.50;;
43986;SDS011;29650;47.378;8.300;2023-07-08T06:40:56;4.47;;;1.70;;
43986;SDS011;29650;47.378;8.300;2023-07-08T06:43:23;4.80;;;1.65;;
43986;SDS011;29650;47.378;8.300;2023-07-08T06:45:52;5.07;;;1.77;;
43986;SDS011;29650;47.378;8.300;2023-07-08T06:48:19;3.67;;;1.63;;
43986;SDS011;29650;47.378;8.300;2023-07-08T06:50:47;4.05;;;1.60;;
43986;SDS011;29650;47.378;8.300;2023-07-08T06:53:14;4.93;;;1.70;;
43986;SDS011;29650;47.378;8.300;2023-07-08T06:55:43;3.50;;;1.80;;
43986;SDS011;29650;47.378;8.300;2023-07-08T06:58:11;3.83;;;1.52;;
43986;SDS011;29650;47.378;8.300;2023-07-08T07:00:40;6.13;;;1.50;;
43986;SDS011;29650;47.378;8.300;2023-07-08T07:03:09;10.90;;;1.80;;
43986;SDS011;29650;47.378;8.300;2023-07-08T07:05:37;3.20;;;1.40;;
43986;SDS011;29650;47.378;8.300;2023-07-08T07:08:04;4.15;;;1.40;;
43986;SDS011;29650;47.378;8.300;2023-07-08T07:10:32;3.70;;;1.58;;
43986;SDS011;29650;47.378;8.300;2023-07-08T07:12:59;5.80;;;1.67;;
43986;SDS011;29650;47.378;8.300;2023-07-08T07:15:26;3.33;;;2.25;;
43986;SDS011;29650;47.378;8.300;2023-07-08T07:20:24;3.25;;;1.63;;
43986;SDS011;29650;47.378;8.300;2023-07-08T07:22:51;3.47;;;1.50;;
43986;SDS011;29650;47.378;8.300;2023-07-08T07:27:45;3.55;;;1.42;;
43986;SDS011;29650;47.378;8.300;2023-07-08T07:30:12;4.07;;;1.42;;
43986;SDS011;29650;47.378;8.300;2023-07-08T07:32:40;3.33;;;1.63;;
43986;SDS011;29650;47.378;8.300;2023-07-08T07:35:08;5.97;;;2.40;;
43986;SDS011;29650;47.378;8.300;2023-07-08T07:37:39;4.53;;;1.98;;
43986;SDS011;29650;47.378;8.300;2023-07-08T07:40:07;5.50;;;1.65;;
43986;SDS011;29650;47.378;8.300;2023-07-08T07:42:37;3.03;;;1.70;;
43986;SDS011;29650;47.378;8.300;2023-07-08T07:45:05;4.50;;;1.52;;
43986;SDS011;29650;47.378;8.300;2023-07-08T07:47:33;3.83;;;2.42;;
43986;SDS011;29650;47.378;8.300;2023-07-08T07:50:00;6.53;;;1.85;;
43986;SDS011;29650;47.378;8.300;2023-07-08T07:52:27;2.83;;;1.48;;
43986;SDS011;29650;47.378;8.300;2023-07-08T07:57:22;3.63;;;1.75;;
43986;SDS011;29650;47.378;8.300;2023-07-08T07:59:49;5.97;;;2.25;;
43986;SDS011;29650;47.378;8.300;2023-07-08T08:02:16;3.42;;;1.55;;
43986;SDS011;29650;47.378;8.300;2023-07-08T08:04:44;6.35;;;1.85;;
43986;SDS011;29650;47.378;8.300;2023-07-08T08:07:11;2.05;;;1.55;;
43986;SDS011;29650;47.378;8.300;2023-07-08T08:09:38;6.50;;;1.70;;
43986;SDS011;29650;47.378;8.300;2023-07-08T08:12:07;6.80;;;1.90;;
43986;SDS011;29650;47.378;8.300;2023-07-08T08:14:35;3.78;;;2.00;;
43986;SDS011;29650;47.378;8.300;2023-07-08T08:17:02;4.95;;;2.20;;
43986;SDS011;29650;47.378;8.300;2023-07-08T08:19:30;2.75;;;1.60;;
43986;SDS011;29650;47.378;8.300;2023-07-08T08:21:57;4.57;;;2.13;;
43986;SDS011;29650;47.378;8.300;2023-07-08T08:24:24;3.25;;;1.50;;
43986;SDS011;29650;47.378;8.300;2023-07-08T08:26:51;4.03;;;1.75;;
43986;SDS011;29650;47.378;8.300;2023-07-08T08:29:19;3.72;;;1.95;;
43986;SDS011;29650;47.378;8.300;2023-07-08T08:31:46;2.28;;;1.60;;
43986;SDS011;29650;47.378;8.300;2023-07-08T08:34:13;2.97;;;2.40;;
43986;SDS011;29650;47.378;8.300;2023-07-08T08:36:40;3.17;;;2.30;;
43986;SDS011;29650;47.378;8.300;2023-07-08T08:39:07;5.00;;;2.10;;
43986;SDS011;29650;47.378;8.300;2023-07-08T08:41:36;5.05;;;2.00;;
43986;SDS011;29650;47.378;8.300;2023-07-08T08:44:05;3.75;;;2.28;;
43986;SDS011;29650;47.378;8.300;2023-07-08T08:46:36;5.60;;;2.10;;
43986;SDS011;29650;47.378;8.300;2023-07-08T08:49:13;4.10;;;2.17;;
43986;SDS011;29650;47.378;8.300;2023-07-08T08:51:49;6.85;;;2.03;;
43986;SDS011;29650;47.378;8.300;2023-07-08T08:54:18;5.40;;;2.63;;
43986;SDS011;29650;47.378;8.300;2023-07-08T08:56:48;2.70;;;1.85;;
43986;SDS011;29650;47.378;8.300;2023-07-08T08:59:24;3.17;;;2.05;;
43986;SDS011;29650;47.378;8.300;2023-07-08T09:01:58;4.28;;;1.70;;
43986;SDS011;29650;47.378;8.300;2023-07-08T09:04:28;3.92;;;1.65;;
43986;SDS011;29650;47.378;8.300;2023-07-08T09:07:01;4.88;;;2.00;;
43986;SDS011;29650;47.378;8.300;2023-07-08T09:09:33;5.22;;;2.10;;
43986;SDS011;29650;47.378;8.300;2023-07-08T09:12:06;2.97;;;2.03;;
43986;SDS011;29650;47.378;8.300;2023-07-08T09:14:39;5.05;;;2.13;;
43986;SDS011;29650;47.378;8.300;2023-07-08T09:17:14;4.28;;;1.95;;
43986;SDS011;29650;47.378;8.300;2023-07-08T09:19:44;5.38;;;1.90;;
43986;SDS011;29650;47.378;8.300;2023-07-08T09:22:14;5.30;;;2.40;;
43986;SDS011;29650;47.378;8.300;2023-07-08T09:24:47;5.65;;;2.17;;
43986;SDS011;29650;47.378;8.300;2023-07-08T09:27:17;4.80;;;2.15;;
43986;SDS011;29650;47.378;8.300;2023-07-08T09:29:45;5.97;;;2.35;;
43986;SDS011;29650;47.378;8.300;2023-07-08T09:32:16;7.43;;;2.47;;
43986;SDS011;29650;47.378;8.300;2023-07-08T09:34:45;6.57;;;2.50;;
43986;SDS011;29650;47.378;8.300;2023-07-08T09:37:24;3.92;;;1.90;;
43986;SDS011;29650;47.378;8.300;2023-07-08T09:39:52;5.70;;;2.58;;
43986;SDS011;29650;47.378;8.300;2023-07-08T09:42:21;4.15;;;2.00;;
43986;SDS011;29650;47.378;8.300;2023-07-08T09:44:53;3.72;;;2.20;;
43986;SDS011;29650;47.378;8.300;2023-07-08T09:47:24;5.40;;;2.58;;
43986;SDS011;29650;47.378;8.300;2023-07-08T09:49:56;3.20;;;2.10;;
43986;SDS011;29650;47.378;8.300;2023-07-08T09:52:24;3.22;;;2.15;;
43986;SDS011;29650;47.378;8.300;2023-07-08T09:54:51;6.00;;;2.15;;
43986;SDS011;29650;47.378;8.300;2023-07-08T09:57:21;3.58;;;2.13;;
43986;SDS011;29650;47.378;8.300;2023-07-08T09:59:54;3.88;;;2.17;;
43986;SDS011;29650;47.378;8.300;2023-07-08T10:02:32;6.10;;;2.58;;
43986;SDS011;29650;47.378;8.300;2023-07-08T10:05:09;7.30;;;2.50;;
43986;SDS011;29650;47.378;8.300;2023-07-08T10:07:40;4.40;;;2.60;;
43986;SDS011;29650;47.378;8.300;2023-07-08T10:10:08;5.40;;;2.40;;
43986;SDS011;29650;47.378;8.300;2023-07-08T10:12:40;4.88;;;2.22;;
43986;SDS011;29650;47.378;8.300;2023-07-08T10:15:13;7.72;;;2.80;;
43986;SDS011;29650;47.378;8.300;2023-07-08T10:17:48;6.57;;;2.45;;
43986;SDS011;29650;47.378;8.300;2023-07-08T10:20:15;5.13;;;2.85;;
43986;SDS011;29650;47.378;8.300;2023-07-08T10:22:44;7.13;;;2.60;;
43986;SDS011;29650;47.378;8.300;2023-07-08T10:25:22;6.00;;;2.58;;
43986;SDS011;29650;47.378;8.300;2023-07-08T10:27:57;6.78;;;2.40;;
43986;SDS011;29650;47.378;8.300;2023-07-08T10:30:30;4.07;;;2.78;;
43986;SDS011;29650;47.378;8.300;2023-07-08T10:33:19;5.72;;;3.10;;
43986;SDS011;29650;47.378;8.300;2023-07-08T10:36:12;5.82;;;2.65;;
43986;SDS011;29650;47.378;8.300;2023-07-08T10:38:50;11.82;;;3.92;;
43986;SDS011;29650;47.378;8.300;2023-07-08T10:41:31;8.45;;;3.53;;
43986;SDS011;29650;47.378;8.300;2023-07-08T10:44:12;8.73;;;3.15;;
43986;SDS011;29650;47.378;8.300;2023-07-08T10:46:47;5.72;;;2.63;;
43986;SDS011;29650;47.378;8.300;2023-07-08T10:51:59;8.27;;;3.13;;
43986;SDS011;29650;47.378;8.300;2023-07-08T10:54:55;7.35;;;2.50;;
43986;SDS011;29650;47.378;8.300;2023-07-08T10:57:37;10.30;;;3.63;;
43986;SDS011;29650;47.378;8.300;2023-07-08T11:00:27;4.53;;;2.80;;
43986;SDS011;29650;47.378;8.300;2023-07-08T11:06:19;7.38;;;3.80;;
43986;SDS011;29650;47.378;8.300;2023-07-08T11:08:50;5.57;;;2.75;;
43986;SDS011;29650;47.378;8.300;2023-07-08T11:11:26;5.75;;;3.47;;
43986;SDS011;29650;47.378;8.300;2023-07-08T11:13:59;8.20;;;3.63;;
43986;SDS011;29650;47.378;8.300;2023-07-08T11:16:32;6.72;;;3.58;;
43986;SDS011;29650;47.378;8.300;2023-07-08T11:19:04;6.82;;;2.83;;
43986;SDS011;29650;47.378;8.300;2023-07-08T11:21:37;7.82;;;3.10;;
43986;SDS011;29650;47.378;8.300;2023-07-08T11:24:11;6.38;;;3.13;;
43986;SDS011;29650;47.378;8.300;2023-07-08T11:26:45;6.80;;;3.30;;
43986;SDS011;29650;47.378;8.300;2023-07-08T11:29:17;9.95;;;3.25;;
43986;SDS011;29650;47.378;8.300;2023-07-08T11:31:47;8.38;;;3.00;;
43986;SDS011;29650;47.378;8.300;2023-07-08T11:34:15;9.73;;;3.70;;
43986;SDS011;29650;47.378;8.300;2023-07-08T11:36:45;8.18;;;3.42;;
43986;SDS011;29650;47.378;8.300;2023-07-08T11:39:25;7.22;;;3.85;;
43986;SDS011;29650;47.378;8.300;2023-07-08T11:42:03;5.22;;;3.60;;
43986;SDS011;29650;47.378;8.300;2023-07-08T11:47:10;6.13;;;3.10;;
43986;SDS011;29650;47.378;8.300;2023-07-08T11:49:42;6.80;;;3.40;;
43986;SDS011;29650;47.378;8.300;2023-07-08T11:54:43;5.97;;;3.13;;
43986;SDS011;29650;47.378;8.300;2023-07-08T11:57:16;6.22;;;3.35;;
43986;SDS011;29650;47.378;8.300;2023-07-08T11:59:44;7.35;;;3.08;;
43986;SDS011;29650;47.378;8.300;2023-07-08T12:07:29;8.30;;;3.15;;
43986;SDS011;29650;47.378;8.300;2023-07-08T12:09:59;6.88;;;3.35;;
43986;SDS011;29650;47.378;8.300;2023-07-08T12:12:32;6.60;;;2.97;;
43986;SDS011;29650;47.378;8.300;2023-07-08T12:15:05;5.25;;;2.92;;
43986;SDS011;29650;47.378;8.300;2023-07-08T12:17:39;5.75;;;3.40;;
43986;SDS011;29650;47.378;8.300;2023-07-08T12:20:12;9.33;;;3.97;;
43986;SDS011;29650;47.378;8.300;2023-07-08T12:22:46;4.80;;;3.40;;
43986;SDS011;29650;47.378;8.300;2023-07-08T12:25:14;5.85;;;3.15;;
43986;SDS011;29650;47.378;8.300;2023-07-08T12:27:43;5.55;;;3.60;;
43986;SDS011;29650;47.378;8.300;2023-07-08T12:30:12;5.90;;;3.03;;
43986;SDS011;29650;47.378;8.300;2023-07-08T12:32:40;8.27;;;3.30;;
43986;SDS011;29650;47.378;8.300;2023-07-08T12:35:09;6.03;;;3.38;;
43986;SDS011;29650;47.378;8.300;2023-07-08T12:37:47;3.95;;;2.80;;
43986;SDS011;29650;47.378;8.300;2023-07-08T12:40:14;7.93;;;3.20;;
43986;SDS011;29650;47.378;8.300;2023-07-08T12:42:41;8.07;;;2.83;;
43986;SDS011;29650;47.378;8.300;2023-07-08T12:45:12;6.80;;;3.10;;
43986;SDS011;29650;47.378;8.300;2023-07-08T12:47:41;4.70;;;2.58;;
43986;SDS011;29650;47.378;8.300;2023-07-08T12:50:09;5.30;;;2.38;;
43986;SDS011;29650;47.378;8.300;2023-07-08T12:52:36;5.85;;;2.60;;
43986;SDS011;29650;47.378;8.300;2023-07-08T12:55:05;6.63;;;2.33;;
43986;SDS011;29650;47.378;8.300;2023-07-08T12:57:37;4.45;;;2.55;;
43986;SDS011;29650;47.378;8.300;2023-07-08T13:00:09;6.70;;;2.75;;
43986;SDS011;29650;47.378;8.300;2023-07-08T13:02:43;4.03;;;1.95;;
43986;SDS011;29650;47.378;8.300;2023-07-08T13:05:11;8.68;;;2.58;;
43986;SDS011;29650;47.378;8.300;2023-07-08T13:07:40;4.22;;;2.38;;
43986;SDS011;29650;47.378;8.300;2023-07-08T13:10:15;5.55;;;2.80;;
43986;SDS011;29650;47.378;8.300;2023-07-08T13:12:45;4.63;;;2.42;;
43986;SDS011;29650;47.378;8.300;2023-07-08T13:15:19;4.70;;;1.98;;
43986;SDS011;29650;47.378;8.300;2023-07-08T13:17:48;4.20;;;2.38;;
43986;SDS011;29650;47.378;8.300;2023-07-08T13:20:16;3.42;;;2.20;;
43986;SDS011;29650;47.378;8.300;2023-07-08T13:22:46;3.05;;;2.00;;
43986;SDS011;29650;47.378;8.300;2023-07-08T13:25:25;6.03;;;2.60;;
43986;SDS011;29650;47.378;8.300;2023-07-08T13:27:56;5.07;;;2.00;;
43986;SDS011;29650;47.378;8.300;2023-07-08T13:30:26;4.78;;;2.20;;
43986;SDS011;29650;47.378;8.300;2023-07-08T13:32:57;4.75;;;2.08;;
43986;SDS011;29650;47.378;8.300;2023-07-08T13:35:26;3.72;;;2.13;;
43986;SDS011;29650;47.378;8.300;2023-07-08T13:38:01;2.30;;;1.80;;
43986;SDS011;29650;47.378;8.300;2023-07-08T13:40:35;3.50;;;2.38;;
43986;SDS011;29650;47.378;8.300;2023-07-08T13:43:10;4.68;;;2.28;;
43986;SDS011;29650;47.378;8.300;2023-07-08T13:45:42;5.20;;;2.75;;
43986;SDS011;29650;47.378;8.300;2023-07-08T13:48:14;5.20;;;2.42;;
43986;SDS011;29650;47.378;8.300;2023-07-08T13:50:56;7.80;;;2.95;;
43986;SDS011;29650;47.378;8.300;2023-07-08T13:53:26;3.03;;;2.00;;
43986;SDS011;29650;47.378;8.300;2023-07-08T13:56:02;6.22;;;2.80;;
43986;SDS011;29650;47.378;8.300;2023-07-08T13:58:41;4.25;;;2.55;;
43986;SDS011;29650;47.378;8.300;2023-07-08T14:01:14;5.30;;;2.13;;
43986;SDS011;29650;47.378;8.300;2023-07-08T14:03:43;5.13;;;2.40;;
43986;SDS011;29650;47.378;8.300;2023-07-08T14:06:12;6.30;;;2.58;;
43986;SDS011;29650;47.378;8.300;2023-07-08T14:08:40;5.75;;;2.33;;
43986;SDS011;29650;47.378;8.300;2023-07-08T14:11:09;4.30;;;2.53;;
43986;SDS011;29650;47.378;8.300;2023-07-08T14:13:38;7.10;;;2.13;;
43986;SDS011;29650;47.378;8.300;2023-07-08T14:16:10;5.93;;;2.33;;
43986;SDS011;29650;47.378;8.300;2023-07-08T14:18:59;5.07;;;2.10;;
43986;SDS011;29650;47.378;8.300;2023-07-08T14:21:29;4.75;;;2.42;;
43986;SDS011;29650;47.378;8.300;2023-07-08T14:23:59;4.05;;;2.30;;
43986;SDS011;29650;47.378;8.300;2023-07-08T14:26:31;4.65;;;2.67;;
43986;SDS011;29650;47.378;8.300;2023-07-08T14:29:00;4.22;;;2.30;;
43986;SDS011;29650;47.378;8.300;2023-07-08T14:31:29;7.78;;;2.25;;
43986;SDS011;29650;47.378;8.300;2023-07-08T14:34:03;4.25;;;2.40;;
43986;SDS011;29650;47.378;8.300;2023-07-08T14:36:32;7.53;;;2.60;;
43986;SDS011;29650;47.378;8.300;2023-07-08T14:39:14;4.32;;;2.47;;
43986;SDS011;29650;47.378;8.300;2023-07-08T14:41:45;4.25;;;2.42;;
43986;SDS011;29650;47.378;8.300;2023-07-08T14:44:20;5.55;;;2.30;;
43986;SDS011;29650;47.378;8.300;2023-07-08T14:46:49;7.35;;;2.40;;
43986;SDS011;29650;47.378;8.300;2023-07-08T14:49:20;3.20;;;1.70;;
43986;SDS011;29650;47.378;8.300;2023-07-08T14:51:50;6.30;;;2.22;;
43986;SDS011;29650;47.378;8.300;2023-07-08T14:54:21;4.85;;;1.95;;
43986;SDS011;29650;47.378;8.300;2023-07-08T14:56:49;4.28;;;2.45;;
43986;SDS011;29650;47.378;8.300;2023-07-08T14:59:21;6.63;;;2.22;;
43986;SDS011;29650;47.378;8.300;2023-07-08T15:01:57;3.83;;;1.73;;
43986;SDS011;29650;47.378;8.300;2023-07-08T15:04:31;3.45;;;1.77;;
43986;SDS011;29650;47.378;8.300;2023-07-08T15:07:04;4.57;;;1.80;;
43986;SDS011;29650;47.378;8.300;2023-07-08T15:09:34;2.60;;;1.70;;
43986;SDS011;29650;47.378;8.300;2023-07-08T15:12:08;3.00;;;2.22;;
43986;SDS011;29650;47.378;8.300;2023-07-08T15:14:36;5.57;;;2.03;;
43986;SDS011;29650;47.378;8.300;2023-07-08T15:17:04;3.92;;;2.10;;
43986;SDS011;29650;47.378;8.300;2023-07-08T15:19:40;5.35;;;2.15;;
43986;SDS011;29650;47.378;8.300;2023-07-08T15:22:13;7.57;;;2.08;;
43986;SDS011;29650;47.378;8.300;2023-07-08T15:24:40;3.83;;;2.15;;
43986;SDS011;29650;47.378;8.300;2023-07-08T15:27:09;4.47;;;1.90;;
43986;SDS011;29650;47.378;8.300;2023-07-08T15:29:39;4.43;;;2.03;;
43986;SDS011;29650;47.378;8.300;2023-07-08T15:32:08;3.88;;;1.90;;
43986;SDS011;29650;47.378;8.300;2023-07-08T15:34:38;3.90;;;1.77;;